createdAt,value
2023-05-16T00:00:43.009Z,37.42
2023-05-16T00:01:43.143Z,37.45
2023-05-16T00:02:43.289Z,37.45
2023-05-16T00:03:43.325Z,37.42
2023-05-16T00:04:43.359Z,37.45
2023-05-16T00:05:43.338Z,37.45
2023-05-16T00:06:43.771Z,37.45
2023-05-16T00:07:43.521Z,37.47
2023-05-16T00:08:43.558Z,37.45
2023-05-16T00:09:43.579Z,37.46
2023-05-16T00:10:43.626Z,37.48
2023-05-16T00:11:43.698Z,37.47
2023-05-16T00:12:43.780Z,37.47
2023-05-16T00:13:43.817Z,37.46
2023-05-16T00:14:43.918Z,37.47
2023-05-16T00:15:43.985Z,37.48
2023-05-16T00:16:44.076Z,37.48
2023-05-16T00:17:44.156Z,37.47
2023-05-16T00:18:44.152Z,37.50
2023-05-16T00:19:44.202Z,37.50
2023-05-16T00:20:44.274Z,37.51
2023-05-16T00:21:44.386Z,37.51
2023-05-16T00:22:44.402Z,37.48
2023-05-16T00:23:44.486Z,37.49
2023-05-16T00:24:44.518Z,37.51
2023-05-16T00:25:44.679Z,37.49
2023-05-16T00:26:44.685Z,37.50
2023-05-16T00:27:44.746Z,37.48
2023-05-16T00:28:44.788Z,37.47
2023-05-16T00:29:44.851Z,37.49
2023-05-16T00:30:44.917Z,37.47
2023-05-16T00:31:45.043Z,37.48
2023-05-16T00:32:45.058Z,37.48
2023-05-16T00:33:45.159Z,37.51
2023-05-16T00:34:45.178Z,37.54
2023-05-16T00:35:45.222Z,37.53
2023-05-16T00:36:45.261Z,37.51
2023-05-16T00:37:45.347Z,37.49
2023-05-16T00:38:45.420Z,37.50
2023-05-16T00:39:45.602Z,37.52
2023-05-16T00:40:45.571Z,37.49
2023-05-16T00:41:45.551Z,37.51
2023-05-16T00:42:45.622Z,37.51
2023-05-16T00:43:45.702Z,37.53
2023-05-16T00:44:45.790Z,37.52
2023-05-16T00:45:45.776Z,37.54
2023-05-16T00:46:45.890Z,37.51
2023-05-16T00:47:46.026Z,37.51
2023-05-16T00:48:45.977Z,37.55
2023-05-16T00:49:46.093Z,37.55
2023-05-16T00:50:46.098Z,37.54
2023-05-16T00:51:46.132Z,37.57
2023-05-16T00:52:46.243Z,37.54
2023-05-16T00:53:46.257Z,37.57
2023-05-16T00:54:46.324Z,37.58
2023-05-16T00:55:46.389Z,37.58
2023-05-16T00:56:46.449Z,37.57
2023-05-16T00:57:46.544Z,37.57
2023-05-16T00:58:46.607Z,37.58
2023-05-16T00:59:46.713Z,37.58
2023-05-16T01:00:48.591Z,37.56
2023-05-16T01:01:46.873Z,37.57
2023-05-16T01:02:46.939Z,37.56
2023-05-16T01:03:48.087Z,37.55
2023-05-16T01:04:47.011Z,37.56
2023-05-16T01:05:47.014Z,37.56
2023-05-16T01:06:47.060Z,37.54
2023-05-16T01:07:47.165Z,37.56
2023-05-16T01:08:47.202Z,37.56
2023-05-16T01:09:47.222Z,37.59
2023-05-16T01:10:47.257Z,37.60
2023-05-16T01:11:47.864Z,37.58
2023-05-16T01:12:47.389Z,37.56
2023-05-16T01:13:47.474Z,37.60
2023-05-16T01:14:47.584Z,37.59
2023-05-16T01:15:47.519Z,37.59
2023-05-16T01:16:47.706Z,37.57
2023-05-16T01:17:47.875Z,37.58
2023-05-16T01:18:47.726Z,37.60
2023-05-16T01:19:47.858Z,37.59
2023-05-16T01:20:47.864Z,37.61
2023-05-16T01:21:48.038Z,37.58
2023-05-16T01:22:47.968Z,37.61
2023-05-16T01:23:48.059Z,37.57
2023-05-16T01:24:48.151Z,37.61
2023-05-16T01:25:48.169Z,37.61
2023-05-16T01:26:48.192Z,37.61
2023-05-16T01:27:48.285Z,37.58
2023-05-16T01:28:48.389Z,37.58
2023-05-16T01:29:48.402Z,37.60
2023-05-16T01:30:48.492Z,37.57
2023-05-16T01:31:48.573Z,37.57
2023-05-16T01:32:48.619Z,37.59
2023-05-16T01:33:48.631Z,37.61
2023-05-16T01:34:48.642Z,37.59
2023-05-16T01:35:48.675Z,37.62
2023-05-16T01:36:48.691Z,37.64
2023-05-16T01:37:48.739Z,37.60
2023-05-16T01:38:48.802Z,37.63
2023-05-16T01:39:48.891Z,37.62
2023-05-16T01:40:48.903Z,37.62
2023-05-16T01:41:48.971Z,37.63
2023-05-16T01:42:49.109Z,37.63
2023-05-16T01:43:49.109Z,37.65
2023-05-16T01:44:49.238Z,37.64
2023-05-16T01:45:49.202Z,37.67
2023-05-16T01:46:49.238Z,37.67
2023-05-16T01:47:49.378Z,37.65
2023-05-16T01:48:49.331Z,37.65
2023-05-16T01:49:49.461Z,37.65
2023-05-16T01:50:49.446Z,37.66
2023-05-16T01:51:49.522Z,37.66
2023-05-16T01:52:49.565Z,37.68
2023-05-16T01:53:49.585Z,37.68
2023-05-16T01:54:49.725Z,37.68
2023-05-16T01:55:49.689Z,37.70
2023-05-16T01:56:49.754Z,37.67
2023-05-16T01:57:49.837Z,37.70
2023-05-16T01:58:49.903Z,37.70
2023-05-16T01:59:50.044Z,37.68
2023-05-16T02:00:50.009Z,37.69
2023-05-16T02:01:50.033Z,37.67
2023-05-16T02:02:50.178Z,37.70
2023-05-16T02:03:50.206Z,37.67
2023-05-16T02:04:50.248Z,37.69
2023-05-16T02:05:50.287Z,37.68
2023-05-16T02:06:50.385Z,37.70
2023-05-16T02:07:50.423Z,37.69
2023-05-16T02:08:50.465Z,37.70
2023-05-16T02:09:50.631Z,37.69
2023-05-16T02:10:50.635Z,37.69
2023-05-16T02:11:50.698Z,37.67
2023-05-16T02:12:50.756Z,37.71
2023-05-16T02:13:50.735Z,37.73
2023-05-16T02:14:50.730Z,37.73
2023-05-16T02:15:50.787Z,37.70
2023-05-16T02:16:50.848Z,37.74
2023-05-16T02:17:50.926Z,37.75
2023-05-16T02:18:51.024Z,37.76
2023-05-16T02:19:51.004Z,37.72
2023-05-16T02:20:51.088Z,37.72
2023-05-16T02:21:51.122Z,37.76
2023-05-16T02:22:51.197Z,37.75
2023-05-16T02:23:51.234Z,37.74
2023-05-16T02:24:51.281Z,37.75
2023-05-16T02:25:51.374Z,37.74
2023-05-16T02:26:51.369Z,37.72
2023-05-16T02:27:51.394Z,37.75
2023-05-16T02:28:51.484Z,37.75
2023-05-16T02:29:51.586Z,37.72
2023-05-16T02:30:51.626Z,37.75
2023-05-16T02:31:51.644Z,37.73
2023-05-16T02:32:51.737Z,37.74
2023-05-16T02:33:51.737Z,37.77
2023-05-16T02:34:51.794Z,37.75
2023-05-16T02:35:51.841Z,37.78
2023-05-16T02:36:51.951Z,37.76
2023-05-16T02:37:51.938Z,37.77
2023-05-16T02:38:51.974Z,37.80
2023-05-16T02:39:52.187Z,37.75
2023-05-16T02:40:52.080Z,37.80
2023-05-16T02:41:52.202Z,37.76
2023-05-16T02:42:52.166Z,37.79
2023-05-16T02:43:52.158Z,37.75
2023-05-16T02:44:52.213Z,37.78
2023-05-16T02:45:52.329Z,37.81
2023-05-16T02:46:52.447Z,37.81
2023-05-16T02:47:52.454Z,37.81
2023-05-16T02:48:52.437Z,37.80
2023-05-16T02:49:52.575Z,37.81
2023-05-16T02:50:52.516Z,37.79
2023-05-16T02:51:52.625Z,37.83
2023-05-16T02:52:52.714Z,37.81
2023-05-16T02:53:52.686Z,37.80
2023-05-16T02:55:52.763Z,37.81
2023-05-16T02:56:52.766Z,37.79
2023-05-16T02:57:52.718Z,37.80
2023-05-16T02:58:52.715Z,37.79
2023-05-16T02:59:52.780Z,37.79
2023-05-16T03:00:52.717Z,37.79
2023-05-16T03:01:52.818Z,37.81
2023-05-16T03:02:52.894Z,37.80
2023-05-16T03:03:52.853Z,37.81
2023-05-16T03:04:52.720Z,37.82
2023-05-16T03:05:52.724Z,37.83
2023-05-16T03:06:52.690Z,37.80
2023-05-16T03:07:52.657Z,37.80
2023-05-16T03:08:52.673Z,37.79
2023-05-16T03:09:52.653Z,37.81
2023-05-16T03:10:52.658Z,37.78
2023-05-16T03:11:52.669Z,37.79
2023-05-16T03:12:52.668Z,37.80
2023-05-16T03:13:52.691Z,37.78
2023-05-16T03:14:52.620Z,37.78
2023-05-16T03:15:52.656Z,37.79
2023-05-16T03:16:52.609Z,37.79
2023-05-16T03:17:52.711Z,37.82
2023-05-16T03:18:52.633Z,37.79
2023-05-16T03:19:52.573Z,37.78
2023-05-16T03:20:52.607Z,37.76
2023-05-16T03:21:52.591Z,37.79
2023-05-16T03:22:52.562Z,37.78
2023-05-16T03:23:52.572Z,37.78
2023-05-16T03:24:52.540Z,37.79
2023-05-16T03:25:52.555Z,37.78
2023-05-16T03:26:52.528Z,37.81
2023-05-16T03:27:52.567Z,37.81
2023-05-16T03:28:52.504Z,37.81
2023-05-16T03:29:52.604Z,37.79
2023-05-16T03:30:52.519Z,37.77
2023-05-16T03:31:52.567Z,37.82
2023-05-16T03:32:52.512Z,37.80
2023-05-16T03:33:52.479Z,37.81
2023-05-16T03:34:52.548Z,37.80
2023-05-16T03:35:52.479Z,37.80
2023-05-16T03:36:52.455Z,37.80
2023-05-16T03:37:52.463Z,37.84
2023-05-16T03:38:52.454Z,37.83
2023-05-16T03:39:52.436Z,37.83
2023-05-16T03:40:52.448Z,37.83
2023-05-16T03:41:52.416Z,37.80
2023-05-16T03:42:52.517Z,37.82
2023-05-16T03:43:52.532Z,37.83
2023-05-16T03:44:52.650Z,37.83
2023-05-16T03:45:52.707Z,37.83
2023-05-16T03:46:52.713Z,37.82
2023-05-16T03:47:52.763Z,37.85
2023-05-16T03:48:52.819Z,37.84
2023-05-16T03:49:52.847Z,37.85
2023-05-16T03:50:52.889Z,37.81
2023-05-16T03:51:52.952Z,37.85
2023-05-16T03:52:53.011Z,37.83
2023-05-16T03:53:53.035Z,37.83
2023-05-16T03:54:53.094Z,37.84
2023-05-16T03:55:53.169Z,37.85
2023-05-16T03:56:53.202Z,37.84
2023-05-16T03:57:53.283Z,37.87
2023-05-16T03:58:53.312Z,37.84
2023-05-16T03:59:53.359Z,37.84
2023-05-16T04:00:53.416Z,37.86
2023-05-16T04:01:53.520Z,37.86
2023-05-16T04:02:53.675Z,37.88
2023-05-16T04:03:53.493Z,37.84
2023-05-16T04:04:53.537Z,37.85
2023-05-16T04:05:53.684Z,37.85
2023-05-16T04:06:53.610Z,37.82
2023-05-16T04:07:53.700Z,37.79
2023-05-16T04:08:53.785Z,37.75
2023-05-16T04:09:53.779Z,37.75
2023-05-16T04:10:53.852Z,37.69
2023-05-16T04:11:53.875Z,37.68
2023-05-16T04:12:53.898Z,37.66
2023-05-16T04:13:53.973Z,37.63
2023-05-16T04:14:54.057Z,37.55
2023-05-16T04:15:54.078Z,37.54
2023-05-16T04:16:54.126Z,37.53
2023-05-16T04:17:54.247Z,37.52
2023-05-16T04:18:54.341Z,37.52
2023-05-16T04:19:54.303Z,37.57
2023-05-16T04:20:54.347Z,37.55
2023-05-16T04:21:54.431Z,37.56
2023-05-16T04:22:54.474Z,37.57
2023-05-16T04:23:54.532Z,37.56
2023-05-16T04:24:54.583Z,37.54
2023-05-16T04:25:54.652Z,37.54
2023-05-16T04:26:54.719Z,37.57
2023-05-16T04:27:54.782Z,37.58
2023-05-16T04:28:54.892Z,37.57
2023-05-16T04:29:55.163Z,37.59
2023-05-16T04:30:54.931Z,37.61
2023-05-16T04:31:55.037Z,37.63
2023-05-16T04:32:55.118Z,37.67
2023-05-16T04:33:55.123Z,37.71
2023-05-16T04:34:55.178Z,37.76
2023-05-16T04:35:55.193Z,37.77
2023-05-16T04:36:55.290Z,37.77
2023-05-16T04:37:55.288Z,37.80
2023-05-16T04:38:55.304Z,37.82
2023-05-16T04:39:55.369Z,37.79
2023-05-16T04:40:55.410Z,37.85
2023-05-16T04:41:55.431Z,37.85
2023-05-16T04:42:55.489Z,37.85
2023-05-16T04:43:55.539Z,37.84
2023-05-16T04:44:55.560Z,37.82
2023-05-16T04:45:55.647Z,37.84
2023-05-16T04:46:55.664Z,37.84
2023-05-16T04:47:55.748Z,37.84
2023-05-16T04:48:55.637Z,37.86
2023-05-16T04:49:55.646Z,37.84
2023-05-16T04:50:55.711Z,37.87
2023-05-16T04:51:55.710Z,37.86
2023-05-16T04:52:56.574Z,37.86
2023-05-16T04:53:55.652Z,37.85
2023-05-16T04:54:55.740Z,37.83
2023-05-16T04:55:55.668Z,37.79
2023-05-16T04:56:55.676Z,37.79
2023-05-16T04:57:55.668Z,37.84
2023-05-16T04:58:55.708Z,37.84
2023-05-16T04:59:55.765Z,37.84
2023-05-16T05:00:55.733Z,37.82
2023-05-16T05:01:55.717Z,37.83
2023-05-16T05:02:55.729Z,37.85
2023-05-16T05:03:55.643Z,37.89
2023-05-16T05:04:55.640Z,37.95
2023-05-16T05:05:55.613Z,37.95
2023-05-16T05:06:55.625Z,38.05
2023-05-16T05:07:55.696Z,38.06
2023-05-16T05:08:55.651Z,38.10
2023-05-16T05:09:55.615Z,38.12
2023-05-16T05:10:55.616Z,38.16
2023-05-16T05:11:55.622Z,38.19
2023-05-16T05:12:55.630Z,38.16
2023-05-16T05:13:55.661Z,38.18
2023-05-16T05:14:55.645Z,38.20
2023-05-16T05:15:55.599Z,38.22
2023-05-16T05:16:55.630Z,38.24
2023-05-16T05:17:55.676Z,38.21
2023-05-16T05:18:55.686Z,38.21
2023-05-16T05:19:55.588Z,38.17
2023-05-16T05:20:55.620Z,38.18
2023-05-16T05:21:55.562Z,38.18
2023-05-16T05:22:55.591Z,38.20
2023-05-16T05:23:55.592Z,38.23
2023-05-16T05:24:55.580Z,38.22
2023-05-16T05:25:55.658Z,38.21
2023-05-16T05:26:55.613Z,38.23
2023-05-16T05:27:55.603Z,38.26
2023-05-16T05:29:04.505Z,38.22
2023-05-16T05:29:56.609Z,38.18
2023-05-16T05:30:55.700Z,38.35
2023-05-16T05:31:55.622Z,38.79
2023-05-16T05:32:55.588Z,39.10
2023-05-16T05:33:55.593Z,39.21
2023-05-16T05:34:55.619Z,39.21
2023-05-16T05:35:55.679Z,39.09
2023-05-16T05:36:55.621Z,39.15
2023-05-16T05:37:55.654Z,39.21
2023-05-16T05:38:55.523Z,39.25
2023-05-16T05:39:55.582Z,39.34
2023-05-16T05:40:55.607Z,39.76
2023-05-16T05:41:55.527Z,39.89
2023-05-16T05:42:55.566Z,39.95
2023-05-16T05:43:55.567Z,40.00
2023-05-16T05:44:55.515Z,39.99
2023-05-16T05:45:55.514Z,39.81
2023-05-16T05:46:55.572Z,39.78
2023-05-16T05:47:55.464Z,39.83
2023-05-16T05:48:55.522Z,39.72
2023-05-16T05:49:55.512Z,39.65
2023-05-16T05:50:55.477Z,39.55
2023-05-16T05:51:55.432Z,39.64
2023-05-16T05:52:55.428Z,39.65
2023-05-16T05:53:55.404Z,39.70
2023-05-16T05:54:55.946Z,39.67
2023-05-16T05:55:55.512Z,39.52
2023-05-16T05:56:55.523Z,39.61
2023-05-16T05:57:55.535Z,39.57
2023-05-16T05:58:55.695Z,39.60
2023-05-16T05:59:55.707Z,39.61
2023-05-16T06:00:55.694Z,39.44
2023-05-16T06:01:55.795Z,39.45
2023-05-16T06:02:56.002Z,39.53
2023-05-16T06:03:55.922Z,39.58
2023-05-16T06:04:55.977Z,39.58
2023-05-16T06:05:56.059Z,39.53
2023-05-16T06:06:56.108Z,39.56
2023-05-16T06:07:56.104Z,39.50
2023-05-16T06:08:56.216Z,39.49
2023-05-16T06:09:56.270Z,39.47
2023-05-16T06:10:57.864Z,39.46
2023-05-16T06:11:56.332Z,39.48
2023-05-16T06:12:56.446Z,39.39
2023-05-16T06:13:56.496Z,39.48
2023-05-16T06:14:56.565Z,39.46
2023-05-16T06:15:56.610Z,39.50
2023-05-16T06:16:56.707Z,39.44
2023-05-16T06:17:56.821Z,39.48
2023-05-16T06:18:56.856Z,39.47
2023-05-16T06:19:56.855Z,39.49
2023-05-16T06:20:56.910Z,39.52
2023-05-16T06:21:56.961Z,39.53
2023-05-16T06:22:57.079Z,39.62
2023-05-16T06:23:57.076Z,39.61
2023-05-16T06:24:57.141Z,39.72
2023-05-16T06:25:57.252Z,39.73
2023-05-16T06:26:57.315Z,39.82
2023-05-16T06:27:57.390Z,39.81
2023-05-16T06:28:57.426Z,39.86
2023-05-16T06:29:57.479Z,39.86
2023-05-16T06:30:57.634Z,40.08
2023-05-16T06:31:57.773Z,40.03
2023-05-16T06:32:57.685Z,40.08
2023-05-16T06:33:57.664Z,40.12
2023-05-16T06:34:57.720Z,40.13
2023-05-16T06:35:57.736Z,40.12
2023-05-16T06:36:57.844Z,40.28
2023-05-16T06:37:58.458Z,41.07
2023-05-16T06:38:58.117Z,41.20
2023-05-16T06:39:57.704Z,41.26
2023-05-16T06:40:58.629Z,41.04
2023-05-16T06:41:57.720Z,40.84
2023-05-16T06:42:57.726Z,41.03
2023-05-16T06:43:57.728Z,41.05
2023-05-16T06:44:57.737Z,41.22
2023-05-16T06:45:57.810Z,41.49
2023-05-16T06:46:57.940Z,41.28
2023-05-16T06:47:57.904Z,41.24
2023-05-16T06:48:57.891Z,40.90
2023-05-16T06:49:57.974Z,41.02
2023-05-16T06:50:58.058Z,40.87
2023-05-16T06:51:58.088Z,40.76
2023-05-16T06:52:58.155Z,40.66
2023-05-16T06:53:58.211Z,40.55
2023-05-16T06:54:58.277Z,40.52
2023-05-16T06:55:58.316Z,40.47
2023-05-16T06:56:58.386Z,40.20
2023-05-16T06:57:58.439Z,40.22
2023-05-16T06:58:58.503Z,40.31
2023-05-16T06:59:58.569Z,40.38
2023-05-16T07:00:58.635Z,40.45
2023-05-16T07:01:58.676Z,40.28
2023-05-16T07:02:58.787Z,40.12
2023-05-16T07:03:58.931Z,40.23
2023-05-16T07:04:58.843Z,40.33
2023-05-16T07:05:58.903Z,40.18
2023-05-16T07:06:58.980Z,40.30
2023-05-16T07:07:59.081Z,40.30
2023-05-16T07:08:59.138Z,40.24
2023-05-16T07:09:59.202Z,40.11
2023-05-16T07:10:59.235Z,40.18
2023-05-16T07:11:59.284Z,40.00
2023-05-16T07:12:59.334Z,40.15
2023-05-16T07:13:59.420Z,40.17
2023-05-16T07:14:59.427Z,40.13
2023-05-16T07:15:59.564Z,40.11
2023-05-16T07:16:59.645Z,40.06
2023-05-16T07:17:59.704Z,40.11
2023-05-16T07:18:59.709Z,40.18
2023-05-16T07:19:59.736Z,40.08
2023-05-16T07:20:59.783Z,39.98
2023-05-16T07:21:59.829Z,40.12
2023-05-16T07:22:59.907Z,40.04
2023-05-16T07:23:59.948Z,40.13
2023-05-16T07:25:00.039Z,40.16
2023-05-16T07:26:00.087Z,40.31
2023-05-16T07:27:00.075Z,40.12
2023-05-16T07:28:00.239Z,40.14
2023-05-16T07:29:00.185Z,40.17
2023-05-16T07:30:00.253Z,39.94
2023-05-16T07:31:00.324Z,40.09
2023-05-16T07:32:00.441Z,40.13
2023-05-16T07:33:00.486Z,40.31
2023-05-16T07:34:00.544Z,40.20
2023-05-16T07:35:00.591Z,40.30
2023-05-16T07:36:12.010Z,40.28
2023-05-16T07:37:01.554Z,40.25
2023-05-16T07:38:00.559Z,40.17
2023-05-16T07:39:00.560Z,40.24
2023-05-16T07:40:00.537Z,40.08
2023-05-16T07:41:00.536Z,40.13
2023-05-16T07:42:00.560Z,40.12
2023-05-16T07:43:00.485Z,40.08
2023-05-16T07:44:00.488Z,40.08
2023-05-16T07:45:00.619Z,39.98
2023-05-16T07:46:00.644Z,39.86
2023-05-16T07:47:00.688Z,39.90
2023-05-16T07:48:00.749Z,39.78
2023-05-16T07:49:01.069Z,39.88
2023-05-16T07:50:00.800Z,39.78
2023-05-16T07:51:00.873Z,39.76
2023-05-16T07:52:01.048Z,39.72
2023-05-16T07:53:00.982Z,39.66
2023-05-16T07:54:01.014Z,39.53
2023-05-16T07:55:01.126Z,39.58
2023-05-16T07:56:01.141Z,39.58
2023-05-16T07:57:01.138Z,39.53
2023-05-16T07:58:01.235Z,39.57
2023-05-16T07:59:01.290Z,39.44
2023-05-16T08:00:01.382Z,39.48
2023-05-16T08:01:01.337Z,39.43
2023-05-16T08:02:01.399Z,39.38
2023-05-16T08:03:01.569Z,39.44
2023-05-16T08:04:01.690Z,39.38
2023-05-16T08:05:01.596Z,39.32
2023-05-16T08:06:01.652Z,39.33
2023-05-16T08:07:01.661Z,39.25
2023-05-16T08:08:01.689Z,39.25
2023-05-16T08:09:01.734Z,39.32
2023-05-16T08:10:01.797Z,39.36
2023-05-16T08:11:01.802Z,39.40
2023-05-16T08:12:02.079Z,39.39
2023-05-16T08:13:01.950Z,39.41
2023-05-16T08:14:01.983Z,39.39
2023-05-16T08:15:01.994Z,39.48
2023-05-16T08:16:02.119Z,39.49
2023-05-16T08:17:02.061Z,39.49
2023-05-16T08:18:02.137Z,39.53
2023-05-16T08:19:02.383Z,39.55
2023-05-16T08:20:02.238Z,39.50
2023-05-16T08:21:02.275Z,39.54
2023-05-16T08:22:02.298Z,39.53
2023-05-16T08:23:02.351Z,39.52
2023-05-16T08:24:02.840Z,39.60
2023-05-16T08:25:02.427Z,39.78
2023-05-16T08:26:02.469Z,39.65
2023-05-16T08:27:02.508Z,40.23
2023-05-16T08:28:02.605Z,40.63
2023-05-16T08:29:02.638Z,40.43
2023-05-16T08:30:02.645Z,40.31
2023-05-16T08:31:02.777Z,40.34
2023-05-16T08:32:02.833Z,40.32
2023-05-16T08:33:02.870Z,40.53
2023-05-16T08:34:02.894Z,40.39
2023-05-16T08:35:03.551Z,40.42
2023-05-16T08:36:03.060Z,40.32
2023-05-16T08:37:03.143Z,40.33
2023-05-16T08:38:03.345Z,40.21
2023-05-16T08:39:03.287Z,40.23
2023-05-16T08:40:03.182Z,40.47
2023-05-16T08:41:03.290Z,40.55
2023-05-16T08:42:03.295Z,40.44
2023-05-16T08:43:03.414Z,40.47
2023-05-16T08:44:03.416Z,40.36
2023-05-16T08:45:03.519Z,40.25
2023-05-16T08:46:03.486Z,40.27
2023-05-16T08:47:03.813Z,40.15
2023-05-16T08:48:03.710Z,40.13
2023-05-16T08:49:03.708Z,40.10
2023-05-16T08:50:03.686Z,40.04
2023-05-16T08:51:03.792Z,40.27
2023-05-16T08:52:03.833Z,40.11
2023-05-16T08:53:03.896Z,39.98
2023-05-16T08:54:03.915Z,39.92
2023-05-16T08:55:10.408Z,39.90
2023-05-16T08:56:04.953Z,39.87
2023-05-16T08:57:04.500Z,39.82
2023-05-16T08:58:03.932Z,39.83
2023-05-16T08:59:03.999Z,39.82
2023-05-16T09:00:03.943Z,39.84
2023-05-16T09:01:03.977Z,39.81
2023-05-16T09:02:03.911Z,39.76
2023-05-16T09:03:03.933Z,39.69
2023-05-16T09:04:03.971Z,39.69
2023-05-16T09:05:03.865Z,39.70
2023-05-16T09:06:04.553Z,39.62
2023-05-16T09:07:03.931Z,39.61
2023-05-16T09:08:03.890Z,39.46
2023-05-16T09:09:04.002Z,39.43
2023-05-16T09:10:03.996Z,39.42
2023-05-16T09:11:04.004Z,39.40
2023-05-16T09:12:04.180Z,39.45
2023-05-16T09:13:04.119Z,39.48
2023-05-16T09:14:04.129Z,39.38
2023-05-16T09:15:04.548Z,39.39
2023-05-16T09:16:04.245Z,39.59
2023-05-16T09:17:04.345Z,39.36
2023-05-16T09:18:04.422Z,39.29
2023-05-16T09:19:04.410Z,39.29
2023-05-16T09:20:04.362Z,39.45
2023-05-16T09:21:04.376Z,39.33
2023-05-16T09:22:04.489Z,39.61
2023-05-16T09:23:04.674Z,39.42
2023-05-16T09:24:04.561Z,39.35
2023-05-16T09:25:06.880Z,39.53
2023-05-16T09:26:04.478Z,39.43
2023-05-16T09:27:04.531Z,39.56
2023-05-16T09:28:04.609Z,39.72
2023-05-16T09:29:04.495Z,39.94
2023-05-16T09:30:04.659Z,39.85
2023-05-16T09:31:04.558Z,39.76
2023-05-16T09:32:04.476Z,39.96
2023-05-16T09:33:04.548Z,40.25
2023-05-16T09:34:04.546Z,40.62
2023-05-16T09:35:04.525Z,40.63
2023-05-16T09:36:04.501Z,40.31
2023-05-16T09:37:04.556Z,40.37
2023-05-16T09:38:04.514Z,40.16
2023-05-16T09:39:04.453Z,40.15
2023-05-16T09:40:04.464Z,40.04
2023-05-16T09:41:04.415Z,40.00
2023-05-16T09:42:04.429Z,39.88
2023-05-16T09:43:04.635Z,39.86
2023-05-16T09:44:04.391Z,39.77
2023-05-16T09:45:04.487Z,39.88
2023-05-16T09:46:04.473Z,39.78
2023-05-16T09:47:04.358Z,39.70
2023-05-16T09:48:04.408Z,39.75
2023-05-16T09:49:04.392Z,39.78
2023-05-16T09:50:04.432Z,39.75
2023-05-16T09:51:04.378Z,39.81
2023-05-16T09:52:04.320Z,39.75
2023-05-16T09:53:04.522Z,39.77
2023-05-16T09:54:04.347Z,39.75
2023-05-16T09:55:04.320Z,39.75
2023-05-16T09:56:04.529Z,39.71
2023-05-16T09:57:04.411Z,39.65
2023-05-16T09:58:04.337Z,39.69
2023-05-16T09:59:04.290Z,39.72
2023-05-16T10:00:04.298Z,39.71
2023-05-16T10:01:04.321Z,39.71
2023-05-16T10:02:04.290Z,39.73
2023-05-16T10:03:05.782Z,39.73
2023-05-16T10:04:04.565Z,39.71
2023-05-16T10:05:04.259Z,39.73
2023-05-16T10:06:04.255Z,39.75
2023-05-16T10:07:04.315Z,39.77
2023-05-16T10:08:04.217Z,39.76
2023-05-16T10:09:04.260Z,39.72
2023-05-16T10:10:04.339Z,39.72
2023-05-16T10:11:04.345Z,39.73
2023-05-16T10:12:04.366Z,39.71
2023-05-16T10:13:04.367Z,39.70
2023-05-16T10:14:06.046Z,39.70
2023-05-16T10:15:04.441Z,39.69
2023-05-16T10:16:04.581Z,39.68
2023-05-16T10:17:05.013Z,39.66
2023-05-16T10:18:04.426Z,39.73
2023-05-16T10:19:04.446Z,39.72
2023-05-16T10:20:04.370Z,39.74
2023-05-16T10:21:04.441Z,39.76
2023-05-16T10:22:04.402Z,39.75
2023-05-16T10:23:04.381Z,39.79
2023-05-16T10:24:04.350Z,39.78
2023-05-16T10:25:04.359Z,39.81
2023-05-16T10:26:04.322Z,39.78
2023-05-16T10:27:04.335Z,39.78
2023-05-16T10:28:04.346Z,39.82
2023-05-16T10:29:04.321Z,39.84
2023-05-16T10:30:04.271Z,39.79
2023-05-16T10:31:04.407Z,39.84
2023-05-16T10:32:04.321Z,39.86
2023-05-16T10:33:04.371Z,39.84
2023-05-16T10:34:04.278Z,39.89
2023-05-16T10:35:04.280Z,39.89
2023-05-16T10:36:04.291Z,39.87
2023-05-16T10:37:04.363Z,39.91
2023-05-16T10:38:06.578Z,39.91
2023-05-16T10:39:04.212Z,39.90
2023-05-16T10:40:04.194Z,40.01
2023-05-16T10:41:04.206Z,40.03
2023-05-16T10:42:04.196Z,40.00
2023-05-16T10:43:04.209Z,39.99
2023-05-16T10:44:04.173Z,40.04
2023-05-16T10:45:05.872Z,40.14
2023-05-16T10:46:04.246Z,40.22
2023-05-16T10:47:04.218Z,40.26
2023-05-16T10:48:04.205Z,40.34
2023-05-16T10:49:04.181Z,40.38
2023-05-16T10:50:04.107Z,40.28
2023-05-16T10:51:04.422Z,40.41
2023-05-16T10:52:04.116Z,40.41
2023-05-16T10:53:04.155Z,40.40
2023-05-16T10:54:04.415Z,40.39
2023-05-16T10:55:04.199Z,40.39
2023-05-16T10:56:04.255Z,40.31
2023-05-16T10:57:04.281Z,40.40
2023-05-16T10:58:04.388Z,40.38
2023-05-16T10:59:04.357Z,40.33
2023-05-16T11:00:04.385Z,40.37
2023-05-16T11:01:04.459Z,40.28
2023-05-16T11:02:04.663Z,40.39
2023-05-16T11:03:04.609Z,40.29
2023-05-16T11:04:04.910Z,40.31
2023-05-16T11:05:04.579Z,40.33
2023-05-16T11:06:04.628Z,40.29
2023-05-16T11:07:04.678Z,40.18
2023-05-16T11:08:04.703Z,40.24
2023-05-16T11:09:04.749Z,40.16
2023-05-16T11:10:04.792Z,40.13
2023-05-16T11:11:04.819Z,40.20
2023-05-16T11:12:04.876Z,40.15
2023-05-16T11:13:04.924Z,40.27
2023-05-16T11:14:05.063Z,40.34
2023-05-16T11:15:05.009Z,40.42
2023-05-16T11:16:05.095Z,40.48
2023-05-16T11:17:05.258Z,40.43
2023-05-16T11:18:05.630Z,40.41
2023-05-16T11:19:05.297Z,40.44
2023-05-16T11:20:05.403Z,40.47
2023-05-16T11:21:05.349Z,40.55
2023-05-16T11:22:05.421Z,40.58
2023-05-16T11:23:05.460Z,40.63
2023-05-16T11:24:05.466Z,40.64
2023-05-16T11:25:05.532Z,40.64
2023-05-16T11:26:05.568Z,40.68
2023-05-16T11:27:05.629Z,40.70
2023-05-16T11:28:05.941Z,40.65
2023-05-16T11:29:05.748Z,40.61
2023-05-16T11:30:05.795Z,40.61
2023-05-16T11:31:05.852Z,40.56
2023-05-16T11:32:05.954Z,40.52
2023-05-16T11:33:06.033Z,40.44
2023-05-16T11:34:05.957Z,40.46
2023-05-16T11:35:05.994Z,40.45
2023-05-16T11:37:06.022Z,40.42
2023-05-16T11:38:06.036Z,40.42
2023-05-16T11:39:06.029Z,40.45
2023-05-16T11:40:06.037Z,40.44
2023-05-16T11:41:05.984Z,40.42
2023-05-16T11:42:06.024Z,40.40
2023-05-16T11:43:07.472Z,40.40
2023-05-16T11:44:05.976Z,40.39
2023-05-16T11:45:05.970Z,40.40
2023-05-16T11:46:06.055Z,40.33
2023-05-16T11:47:06.036Z,40.36
2023-05-16T11:48:06.149Z,40.35
2023-05-16T11:49:05.951Z,40.32
2023-05-16T11:50:06.023Z,40.33
2023-05-16T11:51:05.932Z,40.31
2023-05-16T11:52:06.016Z,40.28
2023-05-16T11:53:05.927Z,40.29
2023-05-16T11:54:05.909Z,40.21
2023-05-16T11:55:05.950Z,40.18
2023-05-16T11:56:05.955Z,40.13
2023-05-16T11:57:05.904Z,40.12
2023-05-16T11:58:05.898Z,40.10
2023-05-16T11:59:05.914Z,40.08
2023-05-16T12:00:05.953Z,40.01
2023-05-16T12:01:06.103Z,40.01
2023-05-16T12:02:06.030Z,40.02
2023-05-16T12:03:06.706Z,39.99
2023-05-16T12:04:06.244Z,39.97
2023-05-16T12:05:06.198Z,39.95
2023-05-16T12:06:06.217Z,39.93
2023-05-16T12:07:06.259Z,39.92
2023-05-16T12:08:06.312Z,39.89
2023-05-16T12:09:06.420Z,39.93
2023-05-16T12:10:06.456Z,39.98
2023-05-16T12:11:06.982Z,40.06
2023-05-16T12:12:06.514Z,40.12
2023-05-16T12:13:06.585Z,40.14
2023-05-16T12:14:06.663Z,40.16
2023-05-16T12:15:06.684Z,40.24
2023-05-16T12:16:06.806Z,40.26
2023-05-16T12:17:06.915Z,40.30
2023-05-16T12:18:06.908Z,40.38
2023-05-16T12:19:07.076Z,40.43
2023-05-16T12:20:07.024Z,40.42
2023-05-16T12:21:07.069Z,40.44
2023-05-16T12:22:07.148Z,40.46
2023-05-16T12:23:07.266Z,40.45
2023-05-16T12:24:07.304Z,40.48
2023-05-16T12:25:07.307Z,40.54
2023-05-16T12:26:07.362Z,40.60
2023-05-16T12:27:07.441Z,40.69
2023-05-16T12:28:07.477Z,40.70
2023-05-16T12:29:07.620Z,40.72
2023-05-16T12:30:07.607Z,40.73
2023-05-16T12:31:13.286Z,40.75
2023-05-16T12:32:08.685Z,40.79
2023-05-16T12:33:08.387Z,40.73
2023-05-16T12:34:07.657Z,40.75
2023-05-16T12:35:07.604Z,40.74
2023-05-16T12:36:07.640Z,40.75
2023-05-16T12:37:07.620Z,40.71
2023-05-16T12:38:07.681Z,40.72
2023-05-16T12:39:09.301Z,40.75
2023-05-16T12:40:07.741Z,40.76
2023-05-16T12:41:07.804Z,40.76
2023-05-16T12:42:07.810Z,40.76
2023-05-16T12:43:07.897Z,40.78
2023-05-16T12:44:07.895Z,40.78
2023-05-16T12:45:08.581Z,40.79
2023-05-16T12:46:08.026Z,40.80
2023-05-16T12:47:08.056Z,40.82
2023-05-16T12:48:08.185Z,40.80
2023-05-16T12:49:08.565Z,40.79
2023-05-16T12:50:08.242Z,40.82
2023-05-16T12:51:08.325Z,40.80
2023-05-16T12:52:08.408Z,40.81
2023-05-16T12:53:08.430Z,40.82
2023-05-16T12:54:10.369Z,40.82
2023-05-16T12:55:08.544Z,40.83